Latest Coastal Weather Observations for Cape Jaffa

IDS60701

Issued at 10:41 am CDT Thursday 19 January 2017 (issued every 10 minutes, with the page automatically refreshed every 10 minutes)

About coastal observations | Map of coastal stations | Coastal observations for SA | Marine services | Other Formats
Station Details ID: 026095 Name: THE LIMESTONE Lat: -36.97 Lon: 139.72 Height: 17.0 m
Data from the previous 72 hours. | See also: Recent months at Cape Jaffa
Date/Time
CDT
Temp
°C
Wind Pressure Rain since
9am
mm
Weather Cloud Vis
km
Sea
Height
m
Swell
Dir  Spd
kts
Gust
kts
hPa Trend Height
m
Period
s
Dir
19/10:30am 20.1 E 6 11 1011.5 - 0.0 - - - - - - -
19/10:00am 18.5 E 8 13 1011.5 - 0.0 - - - - - - -
19/09:30am 17.3 ESE 9 13 1011.9 - 0.0 - - - - - - -
19/09:00am 16.2 E 10 14 1012.4 - 0.0 - - - - - - -
19/08:30am 14.5 E 14 19 1012.6 - 0.0 - - - - - - -
19/08:00am 13.5 ESE 13 18 1012.7 - 0.0 - - - - - - -
19/07:30am 12.3 ESE 12 18 1013.0 - 0.0 - - - - - - -
19/07:00am 11.3 ESE 8 11 1013.2 - 0.0 - - - - - - -
19/06:30am 10.4 ESE 8 11 1013.1 - 0.0 - - - - - - -
19/06:00am 10.3 ESE 7 9 1013.1 - 0.0 - - - - - - -
19/05:30am 10.5 ESE 8 12 1013.0 - 0.0 - - - - - - -
19/05:00am 10.8 ESE 9 13 1012.9 - 0.0 - - - - - - -
19/04:30am 11.1 ESE 9 15 1012.7 - 0.0 - - - - - - -
19/04:00am 11.2 ESE 9 13 1012.9 - 0.0 - - - - - - -
19/03:30am 11.3 ESE 8 13 1013.3 - 0.0 - - - - - - -
19/03:00am 11.3 ESE 7 11 1013.8 - 0.0 - - - - - - -
19/02:30am 11.4 ESE 7 10 1014.3 - 0.0 - - - - - - -
19/02:00am 11.8 ESE 7 11 1014.6 - 0.0 - - - - - - -
19/01:30am 11.9 SE 8 11 1014.9 - 0.0 - - - - - - -
19/01:00am 12.2 SE 9 12 1015.0 - 0.0 - - - - - - -
19/12:30am 12.6 SE 10 15 1015.2 - 0.0 - - - - - - -
19/12:00am 12.8 SE 11 15 1015.4 - 0.0 - - - - - - -
 
Date/Time
CDT
Temp
°C
Wind Pressure Rain since
9am
mm
Weather Cloud Vis
km
Sea
Height
m
Swell
Dir  Spd
kts
Gust
kts
hPa Trend Height
m
Period
s
Dir
18/11:30pm 13.1 SE 10 15 1015.7 - 0.0 - - - - - - -
18/11:00pm 13.5 SSE 11 16 1015.9 - 0.0 - - - - - - -
18/10:30pm 14.1 SSE 12 17 1016.1 - 0.0 - - - - - - -
18/10:00pm 14.4 SSE 12 15 1016.0 - 0.0 - - - - - - -
18/09:30pm 14.7 SSE 13 17 1015.7 - 0.0 - - - - - - -
18/09:00pm 15.2 SSE 15 20 1015.2 - 0.0 - - - - - - -
18/08:30pm 15.7 SSE 17 23 1015.0 - 0.0 - - - - - - -
18/08:00pm 16.6 SSE 19 26 1014.7 - 0.0 - - - - - - -
18/07:30pm 17.4 SSE 20 24 1014.9 - 0.0 - - - - - - -
18/07:00pm 18.2 S 20 27 1014.9 - 0.0 - - - - - - -
18/06:30pm 18.9 S 21 26 1014.6 - 0.0 - - - - - - -
18/06:00pm 19.4 S 20 25 1014.9 - 0.0 - - - - - - -
18/05:30pm 19.0 S 20 26 1015.1 - 0.0 - - - - - - -
18/05:00pm 18.9 S 21 27 1015.3 - 0.0 - - - - - - -
18/04:30pm 19.7 SSW 22 26 1015.7 - 0.0 - - - - - - -
18/04:00pm 19.9 SSW 22 27 1015.4 - 0.0 - - - - - - -
18/03:30pm 19.8 SSW 22 27 1015.7 - 0.0 - - - - - - -
18/03:00pm 19.4 SSW 22 26 1015.9 - 0.0 - - - - - - -
18/02:30pm 19.7 SSW 21 24 1016.1 - 0.0 - - - - - - -
18/02:00pm 19.4 SSW 20 25 1016.3 - 0.0 - - - - - - -
18/01:30pm 19.1 SSW 21 23 1016.4 - 0.0 - - - - - - -
18/01:00pm 19.4 SSW 19 23 1016.9 - 0.0 - - - - - - -
18/12:30pm 20.1 S 20 25 1016.9 - 0.0 - - - - - - -
18/12:00pm 19.3 S 19 23 1017.0 - 0.0 - - - - - - -
18/11:30am 19.5 S 18 23 1017.0 - 0.0 - - - - - - -
18/11:00am 19.3 S 16 20 1017.4 - 0.0 - - - - - - -
18/10:30am 17.3 S 14 19 1017.4 - 0.0 - - - - - - -
18/10:00am 16.9 S 16 21 1016.4 - 0.0 - - - - - - -
18/09:30am 17.5 S 13 16 1016.6 - 0.0 - - - - - - -
18/09:00am 16.4 SSE 13 17 1015.9 - 0.0 - - - - - - -
18/08:30am 16.2 SSE 11 16 1016.3 - 0.0 - - - - - - -
18/08:00am 16.6 S 15 19 1016.2 - 0.0 - - - - - - -
18/07:30am 16.2 S 15 20 1015.4 - 0.0 - - - - - - -
18/07:00am 16.2 S 16 21 1014.8 - 0.0 - - - - - - -
18/06:30am 16.3 S 16 21 1014.5 - 0.0 - - - - - - -
18/06:00am 16.2 S 17 22 1014.0 - 0.0 - - - - - - -
18/05:30am 16.3 S 16 22 1013.1 - 0.0 - - - - - - -
18/05:00am 15.8 S 16 20 1012.3 - 0.0 - - - - - - -
18/04:30am 15.6 S 15 18 1012.5 - 0.0 - - - - - - -
18/04:00am 15.4 S 15 20 1011.8 - 0.0 - - - - - - -
18/03:30am 15.1 S 13 18 1012.1 - 0.0 - - - - - - -
18/03:00am 14.5 S 15 19 1011.4 - 0.0 - - - - - - -
18/02:30am 14.6 S 14 20 1011.6 - 0.0 - - - - - - -
18/02:00am 15.6 S 15 21 1012.1 - 0.0 - - - - - - -
18/01:30am 15.9 S 17 22 1011.8 - 0.0 - - - - - - -
18/01:00am 16.7 S 15 19 1011.3 - 0.0 - - - - - - -
18/12:30am 17.1 S 13 16 1011.9 - 0.0 - - - - - - -
18/12:00am 17.2 S 12 17 1011.8 - 0.0 - - - - - - -
 
Date/Time
CDT
Temp
°C
Wind Pressure Rain since
9am
mm
Weather Cloud Vis
km
Sea
Height
m
Swell
Dir  Spd
kts
Gust
kts
hPa Trend Height
m
Period
s
Dir
17/11:30pm 17.3 S 16 20 1011.7 - 0.0 - - - - - - -
17/11:00pm 17.6 S 17 21 1011.9 - 0.0 - - - - - - -
17/10:30pm 17.8 S 18 22 1011.3 - 0.0 - - - - - - -
17/10:00pm 17.7 S 16 21 1011.6 - 0.0 - - - - - - -
17/09:30pm 17.8 S 16 21 1011.5 - 0.0 - - - - - - -
17/09:00pm 17.9 S 20 25 1011.9 - 0.0 - - - - - - -
17/08:30pm 18.0 SSW 22 28 1011.7 - 0.0 - - - - - - -
17/08:00pm 18.3 SSW 18 23 1010.9 - 0.0 - - - - - - -
17/07:30pm 18.5 SSW 20 25 1009.8 - 0.0 - - - - - - -
17/07:00pm 18.9 S 20 27 1009.0 - 0.0 - - - - - - -
17/06:30pm 19.8 SSW 19 25 1008.3 - 0.0 - - - - - - -
17/06:00pm 21.1 SSW 13 18 1007.6 - 0.0 - - - - - - -
17/05:30pm 22.2 S 13 16 1006.9 - 0.0 - - - - - - -
17/05:00pm 21.8 S 11 15 1006.7 - 0.0 - - - - - - -
17/04:30pm 22.1 S 13 16 1006.3 - 0.0 - - - - - - -
17/04:00pm 22.8 S 14 17 1006.1 - 0.0 - - - - - - -
17/03:30pm 23.7 SSW 13 17 1006.2 - 0.0 - - - - - - -
17/03:00pm 27.0 S 11 13 1006.3 - 0.0 - - - - - - -
17/02:30pm 24.9 SSW 13 16 1006.4 - 0.0 - - - - - - -
17/02:00pm 26.6 SSW 7 10 1006.4 - 0.0 - - - - - - -
17/01:30pm 26.3 SSW 6 8 1006.6 - 0.0 - - - - - - -
17/01:00pm 24.6 SSW 7 10 1006.8 - 0.0 - - - - - - -
17/12:30pm 24.2 SSW 10 13 1007.1 - 0.0 - - - - - - -
17/12:00pm 25.6 WNW 5 14 1007.3 - 0.0 - - - - - - -
17/11:30am 29.0 NNE 5 8 1007.0 - 0.0 - - - - - - -
17/11:00am 27.4 NE 5 6 1007.2 - 0.0 - - - - - - -
17/10:30am 26.8 NE 5 6 1007.6 - 0.0 - - - - - - -
17/10:00am 26.4 NE 7 9 1007.3 - 0.0 - - - - - - -
17/09:30am 25.9 NE 3 5 1007.6 - 0.0 - - - - - - -
17/09:00am 25.3 NNW 2 4 1008.3 - 0.0 - - - - - - -
17/08:30am 23.9 NE 5 6 1008.0 - 0.0 - - - - - - -
17/08:00am 22.7 NE 4 5 1007.9 - 0.0 - - - - - - -
17/07:30am 20.8 E 3 5 1007.8 - 0.0 - - - - - - -
17/07:00am 19.9 NE 8 9 1007.3 - 0.0 - - - - - - -
17/06:30am 19.4 NE 5 6 1007.4 - 0.0 - - - - - - -
17/06:00am 18.5 NE 7 9 1007.1 - 0.0 - - - - - - -
17/05:30am 18.2 NE 6 7 1007.2 - 0.0 - - - - - - -
17/05:00am 19.6 N 3 4 1007.5 - 0.0 - - - - - - -
17/04:30am 20.0 W 7 8 1007.3 - 0.0 - - - - - - -
17/04:00am 19.8 WNW 2 3 1007.3 - 0.0 - - - - - - -
17/03:30am 20.0 NW 3 3 1007.4 - 0.0 - - - - - - -
17/03:00am 19.6 WNW 4 5 1007.7 - 0.0 - - - - - - -
17/02:30am 19.3 ENE 1 2 1007.7 - 0.0 - - - - - - -
17/02:00am 18.1 ENE 5 5 1007.9 - 0.0 - - - - - - -
17/01:30am 18.2 ENE 5 6 1008.1 - 0.0 - - - - - - -
17/01:00am 17.9 ENE 5 7 1008.4 - 0.0 - - - - - - -
17/12:37am 17.8 NE 4 12 1008.3 - 0.0 - - - - - - -
17/12:30am 22.9 CALM 0 0 1008.2 - 0.0 - - - - - - -
17/12:00am 22.8 CALM 0 0 1008.5 - 0.0 - - - - - - -
 
Date/Time
CDT
Temp
°C
Wind Pressure Rain since
9am
mm
Weather Cloud Vis
km
Sea
Height
m
Swell
Dir  Spd
kts
Gust
kts
hPa Trend Height
m
Period
s
Dir
16/11:30pm 22.5 CALM 0 0 1008.8 - 0.0 - - - - - - -
16/11:00pm 20.8 NE 2 3 1009.1 - 0.0 - - - - - - -
16/10:30pm 21.6 NE 2 3 1009.3 - 0.0 - - - - - - -
16/10:00pm 22.3 NE 3 3 1009.4 - 0.0 - - - - - - -
16/09:30pm 22.8 NE 3 4 1009.5 - 0.0 - - - - - - -
16/09:00pm 22.8 NE 4 4 1009.6 - 0.0 - - - - - - -
16/08:30pm 22.6 NNE 4 5 1009.7 - 0.0 - - - - - - -
16/08:00pm 24.8 N 3 4 1009.9 - 0.0 - - - - - - -
16/07:30pm 25.7 NNW 4 5 1009.7 - 0.0 - - - - - - -
16/07:00pm 27.0 NW 5 7 1009.8 - 0.0 - - - - - - -
16/06:30pm 27.7 NW 7 8 1009.7 - 0.0 - - - - - - -
16/06:00pm 27.7 NNW 8 10 1009.6 - 0.0 - - - - - - -
16/05:30pm 28.3 NNW 9 11 1009.7 - 0.0 - - - - - - -
16/05:00pm 28.3 NNW 9 11 1010.1 - 0.0 - - - - - - -
16/04:30pm 28.5 NNW 9 11 1010.4 - 0.0 - - - - - - -
16/04:00pm 28.7 NNW 11 13 1010.7 - 0.0 - - - - - - -
16/03:30pm 28.3 NNW 11 15 1010.8 - 0.0 - - - - - - -
16/03:00pm 28.1 N 12 15 1010.9 - 0.0 - - - - - - -
16/02:30pm 28.0 N 12 17 1011.3 - 0.0 - - - - - - -
16/02:00pm 27.0 N 11 16 1011.4 - 0.0 - - - - - - -
16/01:30pm 27.2 N 10 14 1012.1 - 0.0 - - - - - - -
16/01:00pm 26.9 N 11 14 1012.3 - 0.0 - - - - - - -
16/12:30pm 25.1 N 12 15 1012.5 - 0.0 - - - - - - -
16/12:00pm 24.4 N 11 15 1012.9 - 0.0 - - - - - - -
16/11:30am 23.8 N 10 12 1013.2 - 0.0 - - - - - - -
16/11:00am 22.3 N 9 11 1013.5 - 0.0 - - - - - - -

Other Formats:

Comma delimited format used in spreadsheet applications
http://www.bom.gov.au/fwo/IDS60701/IDS60701.94813.axf

JavaScript Object Notation format (JSON) in row-major order
http://www.bom.gov.au/fwo/IDS60701/IDS60701.94813.json